sensor_id;sensor_type;location;lat;lon;timestamp;temperature;humidity
76293;DHT22;67256;51.154;4.164;2024-03-08T00:01:10;7.40;99.90
76293;DHT22;67256;51.154;4.164;2024-03-08T00:03:36;7.20;99.90
76293;DHT22;67256;51.154;4.164;2024-03-08T00:06:01;7.30;99.90
76293;DHT22;67256;51.154;4.164;2024-03-08T00:08:28;7.30;99.90
76293;DHT22;67256;51.154;4.164;2024-03-08T00:10:54;7.30;99.90
76293;DHT22;67256;51.154;4.164;2024-03-08T00:13:19;7.20;99.90
76293;DHT22;67256;51.154;4.164;2024-03-08T00:15:45;7.20;99.90
76293;DHT22;67256;51.154;4.164;2024-03-08T00:18:11;7.20;99.90
76293;DHT22;67256;51.154;4.164;2024-03-08T00:20:37;7.20;99.90
76293;DHT22;67256;51.154;4.164;2024-03-08T00:23:03;7.10;99.90
76293;DHT22;67256;51.154;4.164;2024-03-08T00:25:29;7.10;99.90
76293;DHT22;67256;51.154;4.164;2024-03-08T00:27:54;7.00;99.90
76293;DHT22;67256;51.154;4.164;2024-03-08T00:30:22;6.90;99.90
76293;DHT22;67256;51.154;4.164;2024-03-08T00:32:50;7.00;99.90
76293;DHT22;67256;51.154;4.164;2024-03-08T00:35:16;7.10;99.90
76293;DHT22;67256;51.154;4.164;2024-03-08T00:37:43;7.20;99.90
76293;DHT22;67256;51.154;4.164;2024-03-08T00:40:12;7.00;99.90
76293;DHT22;67256;51.154;4.164;2024-03-08T00:42:38;7.10;99.90
76293;DHT22;67256;51.154;4.164;2024-03-08T00:45:05;7.10;99.90
76293;DHT22;67256;51.154;4.164;2024-03-08T00:47:31;7.10;99.90
76293;DHT22;67256;51.154;4.164;2024-03-08T00:49:57;7.00;99.90
76293;DHT22;67256;51.154;4.164;2024-03-08T00:52:23;7.10;99.90
76293;DHT22;67256;51.154;4.164;2024-03-08T00:54:51;7.00;99.90
76293;DHT22;67256;51.154;4.164;2024-03-08T00:57:17;7.00;99.90
76293;DHT22;67256;51.154;4.164;2024-03-08T00:59:43;7.00;99.90
76293;DHT22;67256;51.154;4.164;2024-03-08T01:02:09;7.00;99.90
76293;DHT22;67256;51.154;4.164;2024-03-08T01:04:35;7.00;99.90
76293;DHT22;67256;51.154;4.164;2024-03-08T01:07:00;7.00;99.90
76293;DHT22;67256;51.154;4.164;2024-03-08T01:09:26;6.90;99.90
76293;DHT22;67256;51.154;4.164;2024-03-08T01:11:54;6.80;99.90
76293;DHT22;67256;51.154;4.164;2024-03-08T01:14:20;6.90;99.90
76293;DHT22;67256;51.154;4.164;2024-03-08T01:16:49;7.00;99.90
76293;DHT22;67256;51.154;4.164;2024-03-08T01:19:15;6.90;99.90
76293;DHT22;67256;51.154;4.164;2024-03-08T01:21:42;6.90;99.90
76293;DHT22;67256;51.154;4.164;2024-03-08T01:24:08;6.90;99.90
76293;DHT22;67256;51.154;4.164;2024-03-08T01:26:33;7.00;99.90
76293;DHT22;67256;51.154;4.164;2024-03-08T01:29:03;7.00;99.90
76293;DHT22;67256;51.154;4.164;2024-03-08T01:31:32;7.00;99.90
76293;DHT22;67256;51.154;4.164;2024-03-08T01:33:58;6.90;99.90
76293;DHT22;67256;51.154;4.164;2024-03-08T01:36:24;6.90;99.90
76293;DHT22;67256;51.154;4.164;2024-03-08T01:38:50;6.90;99.90
76293;DHT22;67256;51.154;4.164;2024-03-08T01:41:16;6.90;99.90
76293;DHT22;67256;51.154;4.164;2024-03-08T01:43:43;6.80;99.90
76293;DHT22;67256;51.154;4.164;2024-03-08T01:46:18;6.90;99.70
76293;DHT22;67256;51.154;4.164;2024-03-08T01:48:45;6.80;99.80
76293;DHT22;67256;51.154;4.164;2024-03-08T01:51:12;6.80;99.70
76293;DHT22;67256;51.154;4.164;2024-03-08T01:53:40;6.70;99.90
76293;DHT22;67256;51.154;4.164;2024-03-08T01:56:07;6.70;99.90
76293;DHT22;67256;51.154;4.164;2024-03-08T01:58:35;6.70;99.70
76293;DHT22;67256;51.154;4.164;2024-03-08T02:01:01;6.60;99.80
76293;DHT22;67256;51.154;4.164;2024-03-08T02:03:29;6.70;99.40
76293;DHT22;67256;51.154;4.164;2024-03-08T02:05:57;6.70;99.50
76293;DHT22;67256;51.154;4.164;2024-03-08T02:08:24;6.60;99.40
76293;DHT22;67256;51.154;4.164;2024-03-08T02:10:50;6.70;99.40
76293;DHT22;67256;51.154;4.164;2024-03-08T02:13:16;6.60;99.40
76293;DHT22;67256;51.154;4.164;2024-03-08T02:15:56;6.60;99.30
76293;DHT22;67256;51.154;4.164;2024-03-08T02:18:23;6.40;99.70
76293;DHT22;67256;51.154;4.164;2024-03-08T02:20:55;6.40;99.70
76293;DHT22;67256;51.154;4.164;2024-03-08T02:23:22;6.40;99.70
76293;DHT22;67256;51.154;4.164;2024-03-08T02:25:49;6.30;99.50
76293;DHT22;67256;51.154;4.164;2024-03-08T02:28:15;6.30;99.70
76293;DHT22;67256;51.154;4.164;2024-03-08T02:30:41;6.40;99.20
76293;DHT22;67256;51.154;4.164;2024-03-08T02:33:07;6.40;99.20
76293;DHT22;67256;51.154;4.164;2024-03-08T02:35:35;6.40;98.90
76293;DHT22;67256;51.154;4.164;2024-03-08T02:38:02;6.40;98.90
76293;DHT22;67256;51.154;4.164;2024-03-08T02:40:29;6.50;98.90
76293;DHT22;67256;51.154;4.164;2024-03-08T02:42:55;6.30;99.00
76293;DHT22;67256;51.154;4.164;2024-03-08T02:45:20;6.30;99.00
76293;DHT22;67256;51.154;4.164;2024-03-08T02:47:47;6.40;98.90
76293;DHT22;67256;51.154;4.164;2024-03-08T02:50:15;6.30;98.80
76293;DHT22;67256;51.154;4.164;2024-03-08T02:52:44;6.40;98.60
76293;DHT22;67256;51.154;4.164;2024-03-08T02:55:12;6.20;98.90
76293;DHT22;67256;51.154;4.164;2024-03-08T02:57:40;6.20;98.80
76293;DHT22;67256;51.154;4.164;2024-03-08T03:00:07;6.20;98.70
76293;DHT22;67256;51.154;4.164;2024-03-08T03:02:36;6.20;98.60
76293;DHT22;67256;51.154;4.164;2024-03-08T03:05:03;6.20;98.70
76293;DHT22;67256;51.154;4.164;2024-03-08T03:07:32;6.10;98.90
76293;DHT22;67256;51.154;4.164;2024-03-08T03:10:03;6.00;99.00
76293;DHT22;67256;51.154;4.164;2024-03-08T03:12:29;6.10;98.60
76293;DHT22;67256;51.154;4.164;2024-03-08T03:14:56;6.10;98.70
76293;DHT22;67256;51.154;4.164;2024-03-08T03:17:23;6.00;98.60
76293;DHT22;67256;51.154;4.164;2024-03-08T03:19:50;6.00;99.00
76293;DHT22;67256;51.154;4.164;2024-03-08T03:22:17;6.00;98.80
76293;DHT22;67256;51.154;4.164;2024-03-08T03:24:44;6.00;98.70
76293;DHT22;67256;51.154;4.164;2024-03-08T03:27:14;6.00;98.50
76293;DHT22;67256;51.154;4.164;2024-03-08T03:29:42;6.00;98.50
76293;DHT22;67256;51.154;4.164;2024-03-08T03:32:11;5.90;98.60
76293;DHT22;67256;51.154;4.164;2024-03-08T03:34:38;5.90;98.80
76293;DHT22;67256;51.154;4.164;2024-03-08T03:37:04;5.80;98.70
76293;DHT22;67256;51.154;4.164;2024-03-08T03:39:30;5.90;98.60
76293;DHT22;67256;51.154;4.164;2024-03-08T03:42:00;5.90;98.80
76293;DHT22;67256;51.154;4.164;2024-03-08T03:44:28;5.90;98.60
76293;DHT22;67256;51.154;4.164;2024-03-08T03:46:54;6.00;98.40
76293;DHT22;67256;51.154;4.164;2024-03-08T03:49:20;6.00;98.20
76293;DHT22;67256;51.154;4.164;2024-03-08T03:51:46;6.00;98.00
76293;DHT22;67256;51.154;4.164;2024-03-08T03:54:12;5.90;98.10
76293;DHT22;67256;51.154;4.164;2024-03-08T03:56:38;5.80;98.40
76293;DHT22;67256;51.154;4.164;2024-03-08T03:59:05;5.80;98.30
76293;DHT22;67256;51.154;4.164;2024-03-08T04:01:32;5.80;98.10
76293;DHT22;67256;51.154;4.164;2024-03-08T04:03:58;5.80;98.20
76293;DHT22;67256;51.154;4.164;2024-03-08T04:06:24;5.70;98.30
76293;DHT22;67256;51.154;4.164;2024-03-08T04:08:50;5.60;98.60
76293;DHT22;67256;51.154;4.164;2024-03-08T04:11:16;5.70;98.40
76293;DHT22;67256;51.154;4.164;2024-03-08T04:13:43;5.60;98.50
76293;DHT22;67256;51.154;4.164;2024-03-08T04:16:09;5.50;98.60
76293;DHT22;67256;51.154;4.164;2024-03-08T04:18:36;5.60;98.60
76293;DHT22;67256;51.154;4.164;2024-03-08T04:21:04;5.60;98.40
76293;DHT22;67256;51.154;4.164;2024-03-08T04:23:32;5.50;98.60
76293;DHT22;67256;51.154;4.164;2024-03-08T04:26:00;5.50;98.70
76293;DHT22;67256;51.154;4.164;2024-03-08T04:28:26;5.60;98.50
76293;DHT22;67256;51.154;4.164;2024-03-08T04:30:52;5.50;98.40
76293;DHT22;67256;51.154;4.164;2024-03-08T04:33:18;5.60;98.30
76293;DHT22;67256;51.154;4.164;2024-03-08T04:35:43;5.50;98.30
76293;DHT22;67256;51.154;4.164;2024-03-08T04:38:11;5.40;98.70
76293;DHT22;67256;51.154;4.164;2024-03-08T04:40:36;5.40;98.70
76293;DHT22;67256;51.154;4.164;2024-03-08T04:43:02;5.40;98.80
76293;DHT22;67256;51.154;4.164;2024-03-08T04:45:28;5.40;98.50
76293;DHT22;67256;51.154;4.164;2024-03-08T04:47:54;5.40;98.60
76293;DHT22;67256;51.154;4.164;2024-03-08T04:50:20;5.50;98.40
76293;DHT22;67256;51.154;4.164;2024-03-08T04:52:46;5.60;98.40
76293;DHT22;67256;51.154;4.164;2024-03-08T04:55:11;5.50;98.40
76293;DHT22;67256;51.154;4.164;2024-03-08T04:57:38;5.60;98.30
76293;DHT22;67256;51.154;4.164;2024-03-08T05:00:04;5.50;98.20
76293;DHT22;67256;51.154;4.164;2024-03-08T05:02:37;5.50;98.30
76293;DHT22;67256;51.154;4.164;2024-03-08T05:05:05;5.40;98.40
76293;DHT22;67256;51.154;4.164;2024-03-08T05:07:31;5.50;98.30
76293;DHT22;67256;51.154;4.164;2024-03-08T05:09:58;5.40;98.30
76293;DHT22;67256;51.154;4.164;2024-03-08T05:12:24;5.40;98.50
76293;DHT22;67256;51.154;4.164;2024-03-08T05:14:50;5.50;98.40
76293;DHT22;67256;51.154;4.164;2024-03-08T05:17:16;5.40;98.30
76293;DHT22;67256;51.154;4.164;2024-03-08T05:19:42;5.50;98.20
76293;DHT22;67256;51.154;4.164;2024-03-08T05:22:09;5.40;98.40
76293;DHT22;67256;51.154;4.164;2024-03-08T05:24:34;5.30;98.40
76293;DHT22;67256;51.154;4.164;2024-03-08T05:27:01;5.30;98.50
76293;DHT22;67256;51.154;4.164;2024-03-08T05:29:28;5.40;98.70
76293;DHT22;67256;51.154;4.164;2024-03-08T05:31:54;5.40;98.30
76293;DHT22;67256;51.154;4.164;2024-03-08T05:34:21;5.30;98.30
76293;DHT22;67256;51.154;4.164;2024-03-08T05:36:47;5.30;98.60
76293;DHT22;67256;51.154;4.164;2024-03-08T05:39:16;5.20;98.50
76293;DHT22;67256;51.154;4.164;2024-03-08T05:41:43;5.30;98.50
76293;DHT22;67256;51.154;4.164;2024-03-08T05:44:09;5.20;98.60
76293;DHT22;67256;51.154;4.164;2024-03-08T05:46:35;5.30;98.60
76293;DHT22;67256;51.154;4.164;2024-03-08T05:49:04;5.30;98.50
76293;DHT22;67256;51.154;4.164;2024-03-08T05:51:33;5.30;98.60
76293;DHT22;67256;51.154;4.164;2024-03-08T05:54:04;5.20;98.70
76293;DHT22;67256;51.154;4.164;2024-03-08T05:56:31;5.30;98.60
76293;DHT22;67256;51.154;4.164;2024-03-08T05:58:57;5.30;98.50
76293;DHT22;67256;51.154;4.164;2024-03-08T06:01:26;5.30;98.50
76293;DHT22;67256;51.154;4.164;2024-03-08T06:03:55;5.20;98.70
76293;DHT22;67256;51.154;4.164;2024-03-08T06:06:23;5.20;98.70
76293;DHT22;67256;51.154;4.164;2024-03-08T06:08:49;5.20;98.80
76293;DHT22;67256;51.154;4.164;2024-03-08T06:11:15;5.30;98.50
76293;DHT22;67256;51.154;4.164;2024-03-08T06:13:43;5.20;98.50
76293;DHT22;67256;51.154;4.164;2024-03-08T06:16:09;5.20;98.50
76293;DHT22;67256;51.154;4.164;2024-03-08T06:18:35;5.20;98.50
76293;DHT22;67256;51.154;4.164;2024-03-08T06:21:08;5.10;98.70
76293;DHT22;67256;51.154;4.164;2024-03-08T06:23:41;5.10;98.70
76293;DHT22;67256;51.154;4.164;2024-03-08T06:26:07;5.20;98.60
76293;DHT22;67256;51.154;4.164;2024-03-08T06:28:34;5.10;98.60
76293;DHT22;67256;51.154;4.164;2024-03-08T06:31:00;5.10;98.80
76293;DHT22;67256;51.154;4.164;2024-03-08T06:33:27;5.20;98.70
76293;DHT22;67256;51.154;4.164;2024-03-08T06:35:55;5.20;98.50
76293;DHT22;67256;51.154;4.164;2024-03-08T06:38:26;5.20;98.50
76293;DHT22;67256;51.154;4.164;2024-03-08T06:40:52;5.20;98.80
76293;DHT22;67256;51.154;4.164;2024-03-08T06:43:18;5.10;98.90
76293;DHT22;67256;51.154;4.164;2024-03-08T06:45:45;5.10;99.10
76293;DHT22;67256;51.154;4.164;2024-03-08T06:48:17;5.00;99.40
76293;DHT22;67256;51.154;4.164;2024-03-08T06:50:47;5.00;99.30
76293;DHT22;67256;51.154;4.164;2024-03-08T06:53:13;5.00;99.30
76293;DHT22;67256;51.154;4.164;2024-03-08T06:55:42;5.00;99.30
76293;DHT22;67256;51.154;4.164;2024-03-08T06:58:07;5.00;99.40
76293;DHT22;67256;51.154;4.164;2024-03-08T07:00:33;5.10;99.00
76293;DHT22;67256;51.154;4.164;2024-03-08T07:02:59;5.10;98.80
76293;DHT22;67256;51.154;4.164;2024-03-08T07:05:29;5.20;98.80
76293;DHT22;67256;51.154;4.164;2024-03-08T07:07:55;5.10;98.80
76293;DHT22;67256;51.154;4.164;2024-03-08T07:10:22;5.10;98.80
76293;DHT22;67256;51.154;4.164;2024-03-08T07:12:50;5.20;98.70
76293;DHT22;67256;51.154;4.164;2024-03-08T07:15:16;5.20;98.70
76293;DHT22;67256;51.154;4.164;2024-03-08T07:17:41;5.10;99.00
76293;DHT22;67256;51.154;4.164;2024-03-08T07:20:10;5.00;99.20
76293;DHT22;67256;51.154;4.164;2024-03-08T07:22:39;5.00;99.30
76293;DHT22;67256;51.154;4.164;2024-03-08T07:25:08;5.00;99.70
76293;DHT22;67256;51.154;4.164;2024-03-08T07:27:50;5.00;99.60
76293;DHT22;67256;51.154;4.164;2024-03-08T07:30:17;5.00;99.60
76293;DHT22;67256;51.154;4.164;2024-03-08T07:33:03;5.20;99.30
76293;DHT22;67256;51.154;4.164;2024-03-08T07:35:29;5.30;98.90
76293;DHT22;67256;51.154;4.164;2024-03-08T07:37:56;5.30;98.80
76293;DHT22;67256;51.154;4.164;2024-03-08T07:40:23;5.50;98.60
76293;DHT22;67256;51.154;4.164;2024-03-08T07:42:52;5.30;98.90
76293;DHT22;67256;51.154;4.164;2024-03-08T07:45:18;5.30;98.80
76293;DHT22;67256;51.154;4.164;2024-03-08T07:47:43;5.40;99.00
76293;DHT22;67256;51.154;4.164;2024-03-08T07:50:10;5.40;99.00
76293;DHT22;67256;51.154;4.164;2024-03-08T07:52:36;5.40;99.00
76293;DHT22;67256;51.154;4.164;2024-03-08T07:55:05;5.50;98.80
76293;DHT22;67256;51.154;4.164;2024-03-08T07:57:31;5.60;98.50
76293;DHT22;67256;51.154;4.164;2024-03-08T07:59:57;5.70;98.30
76293;DHT22;67256;51.154;4.164;2024-03-08T08:02:23;5.70;98.60
76293;DHT22;67256;51.154;4.164;2024-03-08T08:04:49;5.70;98.20
76293;DHT22;67256;51.154;4.164;2024-03-08T08:07:15;5.70;97.80
76293;DHT22;67256;51.154;4.164;2024-03-08T08:09:41;5.70;98.10
76293;DHT22;67256;51.154;4.164;2024-03-08T08:12:08;5.80;98.20
76293;DHT22;67256;51.154;4.164;2024-03-08T08:14:38;5.70;98.50
76293;DHT22;67256;51.154;4.164;2024-03-08T08:17:04;5.70;98.50
76293;DHT22;67256;51.154;4.164;2024-03-08T08:19:30;5.80;98.60
76293;DHT22;67256;51.154;4.164;2024-03-08T08:21:57;5.90;98.20
76293;DHT22;67256;51.154;4.164;2024-03-08T08:24:23;5.90;97.70
76293;DHT22;67256;51.154;4.164;2024-03-08T08:26:49;5.80;97.80
76293;DHT22;67256;51.154;4.164;2024-03-08T08:29:15;5.90;98.00
76293;DHT22;67256;51.154;4.164;2024-03-08T08:31:41;6.00;97.90
76293;DHT22;67256;51.154;4.164;2024-03-08T08:34:09;6.00;97.70
76293;DHT22;67256;51.154;4.164;2024-03-08T08:36:37;5.90;98.00
76293;DHT22;67256;51.154;4.164;2024-03-08T08:39:04;6.00;98.10
76293;DHT22;67256;51.154;4.164;2024-03-08T08:41:30;6.10;97.90
76293;DHT22;67256;51.154;4.164;2024-03-08T08:43:57;6.20;97.30
76293;DHT22;67256;51.154;4.164;2024-03-08T08:46:25;6.10;97.40
76293;DHT22;67256;51.154;4.164;2024-03-08T08:48:52;6.10;97.90
76293;DHT22;67256;51.154;4.164;2024-03-08T08:51:17;6.20;97.50
76293;DHT22;67256;51.154;4.164;2024-03-08T08:53:43;6.10;97.40
76293;DHT22;67256;51.154;4.164;2024-03-08T08:56:10;6.20;97.80
76293;DHT22;67256;51.154;4.164;2024-03-08T08:58:39;6.30;97.50
76293;DHT22;67256;51.154;4.164;2024-03-08T09:01:05;6.40;96.90
76293;DHT22;67256;51.154;4.164;2024-03-08T09:03:33;6.30;97.20
76293;DHT22;67256;51.154;4.164;2024-03-08T09:06:00;6.40;97.20
76293;DHT22;67256;51.154;4.164;2024-03-08T09:08:28;6.50;97.10
76293;DHT22;67256;51.154;4.164;2024-03-08T09:10:54;6.50;97.30
76293;DHT22;67256;51.154;4.164;2024-03-08T09:13:20;6.60;96.50
76293;DHT22;67256;51.154;4.164;2024-03-08T09:15:45;6.60;96.60
76293;DHT22;67256;51.154;4.164;2024-03-08T09:18:11;6.60;96.80
76293;DHT22;67256;51.154;4.164;2024-03-08T09:20:37;6.60;96.80
76293;DHT22;67256;51.154;4.164;2024-03-08T09:23:03;6.50;97.00
76293;DHT22;67256;51.154;4.164;2024-03-08T09:25:29;6.70;96.90
76293;DHT22;67256;51.154;4.164;2024-03-08T09:27:56;6.70;96.10
76293;DHT22;67256;51.154;4.164;2024-03-08T09:30:22;6.80;96.30
76293;DHT22;67256;51.154;4.164;2024-03-08T09:32:48;6.80;96.20
76293;DHT22;67256;51.154;4.164;2024-03-08T09:35:16;6.80;95.60
76293;DHT22;67256;51.154;4.164;2024-03-08T09:37:42;6.90;96.00
76293;DHT22;67256;51.154;4.164;2024-03-08T09:40:08;6.90;95.70
76293;DHT22;67256;51.154;4.164;2024-03-08T09:42:41;7.00;96.10
76293;DHT22;67256;51.154;4.164;2024-03-08T09:45:10;7.10;95.80
76293;DHT22;67256;51.154;4.164;2024-03-08T09:47:41;7.10;95.40
76293;DHT22;67256;51.154;4.164;2024-03-08T09:50:08;7.10;95.50
76293;DHT22;67256;51.154;4.164;2024-03-08T09:52:41;7.10;95.40
76293;DHT22;67256;51.154;4.164;2024-03-08T09:55:09;7.20;95.50
76293;DHT22;67256;51.154;4.164;2024-03-08T09:57:37;7.20;95.00
76293;DHT22;67256;51.154;4.164;2024-03-08T10:00:04;7.30;94.50
76293;DHT22;67256;51.154;4.164;2024-03-08T10:02:46;7.30;94.50
76293;DHT22;67256;51.154;4.164;2024-03-08T10:05:13;7.30;95.00
76293;DHT22;67256;51.154;4.164;2024-03-08T10:07:40;7.20;95.20
76293;DHT22;67256;51.154;4.164;2024-03-08T10:10:06;7.30;95.30
76293;DHT22;67256;51.154;4.164;2024-03-08T10:12:34;7.30;94.80
76293;DHT22;67256;51.154;4.164;2024-03-08T10:15:00;7.40;95.10
76293;DHT22;67256;51.154;4.164;2024-03-08T10:17:26;7.50;94.70
76293;DHT22;67256;51.154;4.164;2024-03-08T10:19:53;7.60;94.20
76293;DHT22;67256;51.154;4.164;2024-03-08T10:22:19;7.50;94.30
76293;DHT22;67256;51.154;4.164;2024-03-08T10:24:46;7.50;93.90
76293;DHT22;67256;51.154;4.164;2024-03-08T10:27:12;7.60;94.30
76293;DHT22;67256;51.154;4.164;2024-03-08T10:29:37;7.60;94.10
76293;DHT22;67256;51.154;4.164;2024-03-08T10:32:08;7.70;94.20
76293;DHT22;67256;51.154;4.164;2024-03-08T10:34:34;7.80;93.40
76293;DHT22;67256;51.154;4.164;2024-03-08T10:37:04;7.80;92.90
76293;DHT22;67256;51.154;4.164;2024-03-08T10:39:35;7.80;93.40
76293;DHT22;67256;51.154;4.164;2024-03-08T10:42:03;7.90;93.10
76293;DHT22;67256;51.154;4.164;2024-03-08T10:44:48;7.90;93.20
76293;DHT22;67256;51.154;4.164;2024-03-08T10:47:25;8.00;92.70
76293;DHT22;67256;51.154;4.164;2024-03-08T10:50:08;7.90;93.10
76293;DHT22;67256;51.154;4.164;2024-03-08T10:52:38;8.00;92.70
76293;DHT22;67256;51.154;4.164;2024-03-08T10:55:05;8.10;92.50
76293;DHT22;67256;51.154;4.164;2024-03-08T10:57:38;8.10;93.10
76293;DHT22;67256;51.154;4.164;2024-03-08T11:00:08;8.20;92.60
76293;DHT22;67256;51.154;4.164;2024-03-08T11:02:37;8.20;93.30
76293;DHT22;67256;51.154;4.164;2024-03-08T11:05:04;8.30;92.90
76293;DHT22;67256;51.154;4.164;2024-03-08T11:07:34;8.30;92.30
76293;DHT22;67256;51.154;4.164;2024-03-08T11:10:04;8.30;92.30
76293;DHT22;67256;51.154;4.164;2024-03-08T11:12:35;8.30;93.00
76293;DHT22;67256;51.154;4.164;2024-03-08T11:15:09;8.40;92.80
76293;DHT22;67256;51.154;4.164;2024-03-08T11:20:16;8.50;91.70
76293;DHT22;67256;51.154;4.164;2024-03-08T11:22:51;8.50;92.60
76293;DHT22;67256;51.154;4.164;2024-03-08T11:25:37;8.60;91.90
76293;DHT22;67256;51.154;4.164;2024-03-08T11:28:18;8.70;92.10
76293;DHT22;67256;51.154;4.164;2024-03-08T11:33:30;8.60;91.30
76293;DHT22;67256;51.154;4.164;2024-03-08T11:36:11;8.60;91.20
76293;DHT22;67256;51.154;4.164;2024-03-08T11:38:42;8.70;91.60
76293;DHT22;67256;51.154;4.164;2024-03-08T11:41:20;8.80;90.30
76293;DHT22;67256;51.154;4.164;2024-03-08T11:43:47;8.80;90.30
76293;DHT22;67256;51.154;4.164;2024-03-08T11:46:14;8.70;90.40
76293;DHT22;67256;51.154;4.164;2024-03-08T11:48:41;8.70;89.60
76293;DHT22;67256;51.154;4.164;2024-03-08T11:51:08;8.70;89.50
76293;DHT22;67256;51.154;4.164;2024-03-08T11:53:34;8.80;90.70
76293;DHT22;67256;51.154;4.164;2024-03-08T11:56:11;8.90;90.60
76293;DHT22;67256;51.154;4.164;2024-03-08T11:58:38;9.00;90.30
76293;DHT22;67256;51.154;4.164;2024-03-08T12:01:10;9.10;89.70
76293;DHT22;67256;51.154;4.164;2024-03-08T12:03:40;9.10;91.10
76293;DHT22;67256;51.154;4.164;2024-03-08T12:06:11;9.10;90.40
76293;DHT22;67256;51.154;4.164;2024-03-08T12:08:39;9.10;89.20
76293;DHT22;67256;51.154;4.164;2024-03-08T12:11:05;9.10;89.20
76293;DHT22;67256;51.154;4.164;2024-03-08T12:13:32;9.10;88.30
76293;DHT22;67256;51.154;4.164;2024-03-08T12:15:59;9.20;88.80
76293;DHT22;67256;51.154;4.164;2024-03-08T12:18:28;9.20;88.80
76293;DHT22;67256;51.154;4.164;2024-03-08T12:21:11;9.30;87.90
76293;DHT22;67256;51.154;4.164;2024-03-08T12:23:38;9.30;88.70
76293;DHT22;67256;51.154;4.164;2024-03-08T12:26:15;9.30;89.00
76293;DHT22;67256;51.154;4.164;2024-03-08T12:28:42;9.30;89.50
76293;DHT22;67256;51.154;4.164;2024-03-08T12:31:11;9.40;88.40
76293;DHT22;67256;51.154;4.164;2024-03-08T12:36:15;9.50;87.50
76293;DHT22;67256;51.154;4.164;2024-03-08T12:38:44;9.50;87.50
76293;DHT22;67256;51.154;4.164;2024-03-08T12:41:17;9.50;86.50
76293;DHT22;67256;51.154;4.164;2024-03-08T12:43:43;9.50;86.40
76293;DHT22;67256;51.154;4.164;2024-03-08T12:46:17;9.50;84.70
76293;DHT22;67256;51.154;4.164;2024-03-08T12:48:46;9.50;86.30
76293;DHT22;67256;51.154;4.164;2024-03-08T12:51:16;9.50;85.30
76293;DHT22;67256;51.154;4.164;2024-03-08T12:53:43;9.60;86.60
76293;DHT22;67256;51.154;4.164;2024-03-08T12:56:10;9.60;85.80
76293;DHT22;67256;51.154;4.164;2024-03-08T12:58:37;9.70;86.00
76293;DHT22;67256;51.154;4.164;2024-03-08T13:01:03;9.70;86.20
76293;DHT22;67256;51.154;4.164;2024-03-08T13:03:34;9.80;86.20
76293;DHT22;67256;51.154;4.164;2024-03-08T13:06:04;9.90;88.60
76293;DHT22;67256;51.154;4.164;2024-03-08T13:08:37;9.90;83.80
76293;DHT22;67256;51.154;4.164;2024-03-08T13:11:10;10.00;85.90
76293;DHT22;67256;51.154;4.164;2024-03-08T13:13:40;9.90;85.70
76293;DHT22;67256;51.154;4.164;2024-03-08T13:16:06;10.00;84.60
76293;DHT22;67256;51.154;4.164;2024-03-08T13:18:35;10.00;85.00
76293;DHT22;67256;51.154;4.164;2024-03-08T13:21:01;10.10;84.40
76293;DHT22;67256;51.154;4.164;2024-03-08T13:23:33;10.00;85.10
76293;DHT22;67256;51.154;4.164;2024-03-08T13:26:06;10.10;85.10
76293;DHT22;67256;51.154;4.164;2024-03-08T13:28:33;10.10;84.00
76293;DHT22;67256;51.154;4.164;2024-03-08T13:31:03;10.10;85.70
76293;DHT22;67256;51.154;4.164;2024-03-08T13:33:34;10.10;85.70
76293;DHT22;67256;51.154;4.164;2024-03-08T13:36:02;10.10;84.50
76293;DHT22;67256;51.154;4.164;2024-03-08T13:38:29;10.00;84.00
76293;DHT22;67256;51.154;4.164;2024-03-08T13:40:58;10.00;84.80
76293;DHT22;67256;51.154;4.164;2024-03-08T13:43:23;10.10;84.10
76293;DHT22;67256;51.154;4.164;2024-03-08T13:45:49;10.20;84.50
76293;DHT22;67256;51.154;4.164;2024-03-08T13:48:15;10.20;85.30
76293;DHT22;67256;51.154;4.164;2024-03-08T13:50:41;10.30;85.70
76293;DHT22;67256;51.154;4.164;2024-03-08T13:53:07;10.20;86.00
76293;DHT22;67256;51.154;4.164;2024-03-08T13:55:35;10.30;86.40
76293;DHT22;67256;51.154;4.164;2024-03-08T13:58:01;10.30;86.20
76293;DHT22;67256;51.154;4.164;2024-03-08T14:00:28;10.40;83.00
76293;DHT22;67256;51.154;4.164;2024-03-08T14:02:59;10.50;82.80
76293;DHT22;67256;51.154;4.164;2024-03-08T14:05:24;10.50;82.90
76293;DHT22;67256;51.154;4.164;2024-03-08T14:07:50;10.50;83.50
76293;DHT22;67256;51.154;4.164;2024-03-08T14:10:19;10.50;83.10
76293;DHT22;67256;51.154;4.164;2024-03-08T14:12:48;10.50;84.60
76293;DHT22;67256;51.154;4.164;2024-03-08T14:15:15;10.50;83.80
76293;DHT22;67256;51.154;4.164;2024-03-08T14:17:42;10.60;83.70
76293;DHT22;67256;51.154;4.164;2024-03-08T14:20:08;10.60;83.60
76293;DHT22;67256;51.154;4.164;2024-03-08T14:22:35;10.50;83.40
76293;DHT22;67256;51.154;4.164;2024-03-08T14:25:00;10.50;83.70
76293;DHT22;67256;51.154;4.164;2024-03-08T14:27:26;10.60;83.40
76293;DHT22;67256;51.154;4.164;2024-03-08T14:29:52;10.70;83.20
76293;DHT22;67256;51.154;4.164;2024-03-08T14:32:20;10.70;84.10
76293;DHT22;67256;51.154;4.164;2024-03-08T14:34:48;10.70;85.30
76293;DHT22;67256;51.154;4.164;2024-03-08T14:37:14;10.80;84.70
76293;DHT22;67256;51.154;4.164;2024-03-08T14:39:40;10.80;82.70
76293;DHT22;67256;51.154;4.164;2024-03-08T14:42:06;10.80;82.50
76293;DHT22;67256;51.154;4.164;2024-03-08T14:44:34;10.80;81.70
76293;DHT22;67256;51.154;4.164;2024-03-08T14:47:00;10.90;81.20
76293;DHT22;67256;51.154;4.164;2024-03-08T14:49:26;11.00;82.50
76293;DHT22;67256;51.154;4.164;2024-03-08T14:51:54;11.00;84.20
76293;DHT22;67256;51.154;4.164;2024-03-08T14:54:20;11.00;82.00
76293;DHT22;67256;51.154;4.164;2024-03-08T14:56:49;10.90;80.20
76293;DHT22;67256;51.154;4.164;2024-03-08T14:59:17;10.90;80.90
76293;DHT22;67256;51.154;4.164;2024-03-08T15:01:45;10.80;81.30
76293;DHT22;67256;51.154;4.164;2024-03-08T15:04:11;10.80;82.60
76293;DHT22;67256;51.154;4.164;2024-03-08T15:06:40;10.90;82.20
76293;DHT22;67256;51.154;4.164;2024-03-08T15:09:08;11.00;79.80
76293;DHT22;67256;51.154;4.164;2024-03-08T15:11:45;10.90;81.70
76293;DHT22;67256;51.154;4.164;2024-03-08T15:14:11;10.90;80.70
76293;DHT22;67256;51.154;4.164;2024-03-08T15:16:43;10.90;81.30
76293;DHT22;67256;51.154;4.164;2024-03-08T15:19:09;10.90;80.30
76293;DHT22;67256;51.154;4.164;2024-03-08T15:21:37;10.90;79.60
76293;DHT22;67256;51.154;4.164;2024-03-08T15:24:03;11.00;79.70
76293;DHT22;67256;51.154;4.164;2024-03-08T15:26:29;11.00;80.80
76293;DHT22;67256;51.154;4.164;2024-03-08T15:28:57;11.00;83.30
76293;DHT22;67256;51.154;4.164;2024-03-08T15:31:23;11.00;81.50
76293;DHT22;67256;51.154;4.164;2024-03-08T15:33:51;11.10;80.10
76293;DHT22;67256;51.154;4.164;2024-03-08T15:36:32;11.10;79.10
76293;DHT22;67256;51.154;4.164;2024-03-08T15:38:59;11.10;79.40
76293;DHT22;67256;51.154;4.164;2024-03-08T15:41:25;11.10;80.10
76293;DHT22;67256;51.154;4.164;2024-03-08T15:43:55;11.10;79.30
76293;DHT22;67256;51.154;4.164;2024-03-08T15:46:21;11.00;79.10
76293;DHT22;67256;51.154;4.164;2024-03-08T15:48:48;11.00;78.80
76293;DHT22;67256;51.154;4.164;2024-03-08T15:51:15;11.00;80.00
76293;DHT22;67256;51.154;4.164;2024-03-08T15:53:43;11.00;80.20